Dickinson's Hourly Summary for Thursday, May 10, 2018
Hour Temp
(f)
RH
(%)
Solar Rad.
(MJ/m2)
Rainfall
(in)
Wind
(mph)
5/10/2018 12:00 AM 68 89 0 0 0
5/10/2018 1:00 AM 68 92 0 0 0
5/10/2018 2:00 AM 67 92 0 0 0.04
5/10/2018 3:00 AM 67 92 0 0 0
5/10/2018 4:00 AM 66 95 0 0 0
5/10/2018 5:00 AM 65 96 0 0 0
5/10/2018 6:00 AM 65 97 0 0 0
5/10/2018 7:00 AM 65 98 0.02 0 0
5/10/2018 8:00 AM 67 93 0.34 0 0
5/10/2018 9:00 AM 75 72 1.02 0 1.82
5/10/2018 10:00 AM 78 57 1.01 0 6.49
5/10/2018 11:00 AM 80 51 2.57 0 6.67
5/10/2018 12:00 PM 82 42 3.03 0 7.18
5/10/2018 1:00 PM 82 44 3.24 0 7.35
5/10/2018 2:00 PM 82 44 3.2 0 8.35
5/10/2018 3:00 PM 82 45 3.25 0 7.85
5/10/2018 4:00 PM 83 39 2.88 0 8.22
5/10/2018 5:00 PM 83 33 2.33 0 8.03
5/10/2018 6:00 PM 82 36 1.65 0 8.62
5/10/2018 7:00 PM 81 42 0.9 0 7.14
5/10/2018 8:00 PM 79 49 0.21 0 4.59
5/10/2018 9:00 PM 76 56 0 0 2.29
5/10/2018 10:00 PM 75 75 0 0 3.15
5/10/2018 11:00 PM 75 82 0 0 2.68
Data Summary 74 67 25.65 0.00 3.77